Time;durP1;ratioP1;P1;durP2;ratioP2;P2;SDS_P1;SDS_P2;PMS_P1;PMS_P2;Temp;Humidity;BMP_temperature;BMP_pressure;BME280_temperature;BME280_humidity;BME280_pressure;Samples;Min_cycle;Max_cycle;Signal;HPM_P1;HPM_P2
2022/10/20 00:01:34;;;;;;;6.83;6.40;;;;;;;;;;4969460;28;21885;-69
2022/10/20 00:04:00;;;;;;;5.67;5.27;;;;;;;;;;4969495;28;20452;-68
2022/10/20 00:06:28;;;;;;;5.93;5.70;;;;;;;;;;4968900;28;20445;-68
2022/10/20 00:08:55;;;;;;;6.53;6.03;;;;;;;;;;4968796;28;20446;-69
2022/10/20 00:11:22;;;;;;;6.13;5.70;;;;;;;;;;4969997;28;20484;-72
2022/10/20 00:13:49;;;;;;;7.30;6.53;;;;;;;;;;4969152;28;20497;-68
2022/10/20 00:16:15;;;;;;;7.53;6.83;;;;;;;;;;4966919;28;20445;-69
2022/10/20 00:18:41;;;;;;;6.13;5.73;;;;;;;;;;4968535;28;20979;-68
2022/10/20 00:21:09;;;;;;;6.67;6.03;;;;;;;;;;4967503;28;20552;-70
2022/10/20 00:23:35;;;;;;;6.37;5.97;;;;;;;;;;4968082;28;20441;-71
2022/10/20 00:26:02;;;;;;;4.93;4.70;;;;;;;;;;4968517;28;20460;-71
2022/10/20 00:28:28;;;;;;;7.63;6.87;;;;;;;;;;4969027;28;20442;-69
2022/10/20 00:30:55;;;;;;;9.47;6.87;;;;;;;;;;4968810;28;20450;-68
2022/10/20 00:33:21;;;;;;;8.70;6.10;;;;;;;;;;4969199;28;20460;-70
2022/10/20 00:35:47;;;;;;;6.60;5.90;;;;;;;;;;4970056;28;20438;-71
2022/10/20 00:38:13;;;;;;;6.23;5.63;;;;;;;;;;4973017;28;20465;-72
2022/10/20 00:40:39;;;;;;;6.30;6.00;;;;;;;;;;4972791;28;20437;-70
2022/10/20 00:43:09;;;;;;;5.67;5.37;;;;;;;;;;4972170;28;20441;-71
2022/10/20 00:45:35;;;;;;;8.83;5.37;;;;;;;;;;4971955;28;20434;-70
2022/10/20 00:48:14;;;;;;;6.37;5.63;;;;;;;;;;4972607;28;20448;-70
2022/10/20 00:50:48;;;;;;;5.77;4.97;;;;;;;;;;4972362;28;20430;-68
2022/10/20 00:53:14;;;;;;;18.73;6.33;;;;;;;;;;4971700;28;20513;-70
2022/10/20 00:55:42;;;;;;;15.73;5.47;;;;;;;;;;4971108;28;20431;-69
2022/10/20 00:58:08;;;;;;;5.30;5.03;;;;;;;;;;4971737;28;20528;-69
2022/10/20 01:00:36;;;;;;;5.60;5.17;;;;;;;;;;4970704;28;20528;-69
2022/10/20 01:03:03;;;;;;;14.23;5.57;;;;;;;;;;4972352;28;20450;-68
2022/10/20 01:05:29;;;;;;;10.77;5.43;;;;;;;;;;4972173;28;20438;-69
2022/10/20 01:07:55;;;;;;;6.20;4.83;;;;;;;;;;4972429;28;20448;-69
2022/10/20 01:10:22;;;;;;;14.90;5.20;;;;;;;;;;4972347;28;20469;-68
2022/10/20 01:12:51;;;;;;;4.83;4.53;;;;;;;;;;4971823;28;20438;-68
2022/10/20 01:15:23;;;;;;;4.60;4.50;;;;;;;;;;4972718;28;20448;-69
2022/10/20 01:17:57;;;;;;;5.90;4.30;;;;;;;;;;4972439;28;20434;-70
2022/10/20 01:20:35;;;;;;;5.10;4.90;;;;;;;;;;4971347;28;20939;-69
2022/10/20 01:23:07;;;;;;;4.60;4.40;;;;;;;;;;4971642;28;20465;-68
2022/10/20 01:25:49;;;;;;;11.57;5.43;;;;;;;;;;4971668;28;20521;-69
2022/10/20 01:28:41;;;;;;;8.23;5.60;;;;;;;;;;4969970;28;20815;-71
2022/10/20 01:31:13;;;;;;;5.17;4.87;;;;;;;;;;4970039;28;22022;-69
2022/10/20 01:33:43;;;;;;;8.67;5.10;;;;;;;;;;4972384;28;20429;-69
2022/10/20 01:36:16;;;;;;;7.10;4.57;;;;;;;;;;4971484;28;20476;-68
2022/10/20 01:38:46;;;;;;;5.67;5.27;;;;;;;;;;4971320;28;20434;-70
2022/10/20 01:41:16;;;;;;;5.47;5.07;;;;;;;;;;4971652;28;20978;-69
2022/10/20 01:43:44;;;;;;;5.13;4.90;;;;;;;;;;4971815;28;20505;-71
2022/10/20 01:46:11;;;;;;;5.53;5.03;;;;;;;;;;4970527;28;20434;-70
2022/10/20 01:48:39;;;;;;;5.53;5.00;;;;;;;;;;4972366;28;20842;-68
2022/10/20 01:51:05;;;;;;;6.67;5.73;;;;;;;;;;4970311;28;20431;-69
2022/10/20 01:53:31;;;;;;;5.80;4.97;;;;;;;;;;4971080;28;20464;-68
2022/10/20 01:55:59;;;;;;;5.90;5.40;;;;;;;;;;4971758;28;20434;-69
2022/10/20 01:58:39;;;;;;;5.40;4.50;;;;;;;;;;4972325;28;20464;-69
2022/10/20 02:01:21;;;;;;;5.80;5.43;;;;;;;;;;4986345;28;20477;-69
2022/10/20 02:03:55;;;;;;;9.03;5.60;;;;;;;;;;4972325;28;20457;-70
2022/10/20 02:06:27;;;;;;;5.27;4.87;;;;;;;;;;4971018;28;21101;-69
2022/10/20 02:09:01;;;;;;;4.17;3.80;;;;;;;;;;4972520;28;20506;-69
2022/10/20 02:11:43;;;;;;;6.70;4.57;;;;;;;;;;4972356;28;20480;-68
2022/10/20 02:14:10;;;;;;;4.13;3.90;;;;;;;;;;4970365;28;20434;-68
2022/10/20 02:16:38;;;;;;;6.93;5.00;;;;;;;;;;4971292;28;20438;-69
2022/10/20 02:19:05;;;;;;;5.33;4.90;;;;;;;;;;4972273;28;20426;-69
2022/10/20 02:21:31;;;;;;;5.40;5.07;;;;;;;;;;4971061;28;20485;-69
2022/10/20 02:24:02;;;;;;;6.13;5.60;;;;;;;;;;4971658;28;20438;-68
2022/10/20 02:26:29;;;;;;;5.30;4.90;;;;;;;;;;4971766;28;20448;-70
2022/10/20 02:28:58;;;;;;;8.10;5.00;;;;;;;;;;4971792;28;20438;-68
2022/10/20 02:31:25;;;;;;;4.93;4.63;;;;;;;;;;4971919;28;20442;-71
2022/10/20 02:33:51;;;;;;;5.43;4.97;;;;;;;;;;4970289;28;20461;-69
2022/10/20 02:36:19;;;;;;;5.47;4.70;;;;;;;;;;4969407;28;20439;-68
2022/10/20 02:38:45;;;;;;;5.67;4.90;;;;;;;;;;4971229;28;20922;-68
2022/10/20 02:41:11;;;;;;;5.37;4.90;;;;;;;;;;4971126;28;20840;-69
2022/10/20 02:43:37;;;;;;;6.27;5.80;;;;;;;;;;4971567;28;20446;-69
2022/10/20 02:46:04;;;;;;;5.50;5.20;;;;;;;;;;4969874;28;20433;-69
2022/10/20 02:48:30;;;;;;;7.90;4.87;;;;;;;;;;4969807;28;20457;-70
2022/10/20 02:50:56;;;;;;;10.30;4.90;;;;;;;;;;4971829;28;20419;-68
2022/10/20 02:53:22;;;;;;;5.50;5.20;;;;;;;;;;4971189;28;20430;-69
2022/10/20 02:55:48;;;;;;;7.33;5.03;;;;;;;;;;4970738;28;20985;-69
2022/10/20 02:58:14;;;;;;;6.20;4.50;;;;;;;;;;4969602;28;20496;-68
2022/10/20 03:00:40;;;;;;;4.90;4.60;;;;;;;;;;4970070;28;20450;-70
2022/10/20 03:03:06;;;;;;;7.00;5.00;;;;;;;;;;4966696;28;20453;-70
2022/10/20 03:05:32;;;;;;;4.57;4.33;;;;;;;;;;4970574;28;20955;-69
2022/10/20 03:07:58;;;;;;;12.33;5.43;;;;;;;;;;4971085;28;20437;-70
2022/10/20 03:10:24;;;;;;;14.73;5.13;;;;;;;;;;4969989;28;20469;-71
2022/10/20 03:12:50;;;;;;;19.03;4.80;;;;;;;;;;4970441;28;20508;-69
2022/10/20 03:15:16;;;;;;;5.90;4.53;;;;;;;;;;4971258;28;20975;-68
2022/10/20 03:17:42;;;;;;;5.80;4.00;;;;;;;;;;4969995;28;20526;-71
2022/10/20 03:20:08;;;;;;;5.17;4.67;;;;;;;;;;4970221;28;20476;-71
2022/10/20 03:22:34;;;;;;;5.33;4.90;;;;;;;;;;4970051;28;21012;-69
2022/10/20 03:25:00;;;;;;;4.90;4.40;;;;;;;;;;4969057;28;20427;-69
2022/10/20 03:27:26;;;;;;;9.93;5.90;;;;;;;;;;4970651;28;20450;-68
2022/10/20 03:29:52;;;;;;;5.70;4.90;;;;;;;;;;4970125;28;20931;-68
2022/10/20 03:32:18;;;;;;;5.73;5.23;;;;;;;;;;4968474;28;20831;-69
2022/10/20 03:34:44;;;;;;;5.50;5.10;;;;;;;;;;4970871;28;20485;-68
2022/10/20 03:37:10;;;;;;;4.60;4.40;;;;;;;;;;4969875;28;20450;-68
2022/10/20 03:39:36;;;;;;;5.70;5.17;;;;;;;;;;4969935;28;20470;-68
2022/10/20 03:42:02;;;;;;;4.93;4.60;;;;;;;;;;4969591;28;20486;-68
2022/10/20 03:44:28;;;;;;;4.50;4.30;;;;;;;;;;4970493;28;20434;-68
2022/10/20 03:46:54;;;;;;;5.93;5.47;;;;;;;;;;4969751;28;20434;-68
2022/10/20 03:49:20;;;;;;;5.33;4.17;;;;;;;;;;4967333;28;20441;-69
2022/10/20 03:51:46;;;;;;;5.57;5.10;;;;;;;;;;4969971;28;20438;-69
2022/10/20 03:54:12;;;;;;;5.73;4.50;;;;;;;;;;4969518;28;20434;-68
2022/10/20 03:56:38;;;;;;;4.10;4.00;;;;;;;;;;4970181;28;20928;-68
2022/10/20 03:59:04;;;;;;;5.80;5.40;;;;;;;;;;4968896;28;20449;-68
2022/10/20 04:01:31;;;;;;;7.03;4.37;;;;;;;;;;4969128;28;20572;-69
2022/10/20 04:03:57;;;;;;;5.40;4.40;;;;;;;;;;4970143;28;20426;-68
2022/10/20 04:06:24;;;;;;;7.37;5.10;;;;;;;;;;4970035;28;20442;-68
2022/10/20 04:08:50;;;;;;;4.60;4.20;;;;;;;;;;4969857;28;20454;-68
2022/10/20 04:11:16;;;;;;;4.73;4.43;;;;;;;;;;4969896;28;20521;-69
2022/10/20 04:13:42;;;;;;;6.90;5.43;;;;;;;;;;4974077;28;20434;-68
2022/10/20 04:16:08;;;;;;;5.43;4.90;;;;;;;;;;4972248;28;20452;-68
2022/10/20 04:18:34;;;;;;;6.07;5.47;;;;;;;;;;4973374;28;20461;-68
2022/10/20 04:21:00;;;;;;;4.50;4.17;;;;;;;;;;4974478;28;20559;-68
2022/10/20 04:23:26;;;;;;;7.00;4.83;;;;;;;;;;4973117;28;20948;-68
2022/10/20 04:25:52;;;;;;;7.97;4.83;;;;;;;;;;4973025;28;20949;-68
2022/10/20 04:28:19;;;;;;;7.50;4.70;;;;;;;;;;4973136;28;20448;-67
2022/10/20 04:30:45;;;;;;;3.93;3.63;;;;;;;;;;4972777;28;20915;-68
2022/10/20 04:33:11;;;;;;;4.57;4.27;;;;;;;;;;4973848;28;20437;-68
2022/10/20 04:35:37;;;;;;;5.07;4.77;;;;;;;;;;4974138;28;20422;-68
2022/10/20 04:38:03;;;;;;;7.90;5.00;;;;;;;;;;4971856;28;20748;-68
2022/10/20 04:40:29;;;;;;;4.73;4.30;;;;;;;;;;4973269;28;20430;-67
2022/10/20 04:42:55;;;;;;;11.10;4.40;;;;;;;;;;4973696;28;20997;-68
2022/10/20 04:45:21;;;;;;;8.57;5.50;;;;;;;;;;4972656;28;20422;-69
2022/10/20 04:47:47;;;;;;;8.07;5.30;;;;;;;;;;4972618;28;20923;-68
2022/10/20 04:50:13;;;;;;;4.73;4.33;;;;;;;;;;4973416;28;20515;-68
2022/10/20 04:52:39;;;;;;;4.63;4.43;;;;;;;;;;4973623;28;20871;-69
2022/10/20 04:55:05;;;;;;;8.23;4.63;;;;;;;;;;4972849;28;20426;-68
2022/10/20 04:57:31;;;;;;;5.30;4.97;;;;;;;;;;4972913;28;20562;-69
2022/10/20 04:59:57;;;;;;;8.67;4.53;;;;;;;;;;4971686;28;20509;-68
2022/10/20 05:02:23;;;;;;;4.43;4.10;;;;;;;;;;4972462;28;20496;-68
2022/10/20 05:04:49;;;;;;;5.17;4.87;;;;;;;;;;4972793;28;20430;-69
2022/10/20 05:07:15;;;;;;;5.43;5.03;;;;;;;;;;4973052;28;20417;-68
2022/10/20 05:09:41;;;;;;;5.70;4.80;;;;;;;;;;4970708;28;20469;-68
2022/10/20 05:12:07;;;;;;;4.50;4.20;;;;;;;;;;4973145;28;20460;-69
2022/10/20 05:14:33;;;;;;;4.90;4.50;;;;;;;;;;4972610;28;20445;-69
2022/10/20 05:16:59;;;;;;;11.77;3.60;;;;;;;;;;4972395;28;20487;-69
2022/10/20 05:19:25;;;;;;;3.80;3.60;;;;;;;;;;4972298;28;20436;-70
2022/10/20 05:21:51;;;;;;;4.20;4.00;;;;;;;;;;4970883;28;20997;-67
2022/10/20 05:24:17;;;;;;;3.60;3.40;;;;;;;;;;4972002;28;20434;-68
2022/10/20 05:26:43;;;;;;;4.90;4.50;;;;;;;;;;4970791;28;20437;-69
2022/10/20 05:29:10;;;;;;;12.30;4.47;;;;;;;;;;4971870;28;21025;-69
2022/10/20 05:31:37;;;;;;;3.83;3.60;;;;;;;;;;4973304;28;20831;-68
2022/10/20 05:34:03;;;;;;;4.10;4.00;;;;;;;;;;4972452;28;20449;-69
2022/10/20 05:36:29;;;;;;;3.67;3.37;;;;;;;;;;4970639;28;20438;-67
2022/10/20 05:38:55;;;;;;;5.87;5.10;;;;;;;;;;4971553;28;20493;-68
2022/10/20 05:41:23;;;;;;;8.40;4.30;;;;;;;;;;4971843;28;20497;-68
2022/10/20 05:43:49;;;;;;;8.20;4.97;;;;;;;;;;4971862;28;20442;-68
2022/10/20 05:46:16;;;;;;;5.50;5.07;;;;;;;;;;4971728;28;20520;-68
2022/10/20 05:48:42;;;;;;;3.87;3.73;;;;;;;;;;4968734;28;20506;-68
2022/10/20 05:51:09;;;;;;;14.60;4.27;;;;;;;;;;4969012;28;20469;-68
2022/10/20 05:53:35;;;;;;;4.77;4.37;;;;;;;;;;4970942;28;20437;-68
2022/10/20 05:56:04;;;;;;;5.20;4.30;;;;;;;;;;4971117;28;20953;-68
2022/10/20 05:58:30;;;;;;;6.87;4.60;;;;;;;;;;4971311;28;20476;-67
2022/10/20 06:01:10;;;;;;;4.27;4.07;;;;;;;;;;4970329;28;20453;-68
2022/10/20 06:03:36;;;;;;;5.20;4.70;;;;;;;;;;4970096;28;20945;-68
2022/10/20 06:06:03;;;;;;;11.03;5.73;;;;;;;;;;4971840;28;20419;-68
2022/10/20 06:08:31;;;;;;;8.00;6.50;;;;;;;;;;4970514;28;20450;-68
2022/10/20 06:10:57;;;;;;;18.27;5.57;;;;;;;;;;4970645;28;20500;-69
2022/10/20 06:13:23;;;;;;;4.87;4.50;;;;;;;;;;4971259;28;20487;-68
2022/10/20 06:15:49;;;;;;;9.80;5.45;;;;;;;;;;4986222;28;20823;-68
2022/10/20 06:18:15;;;;;;;13.90;5.30;;;;;;;;;;4970256;28;20182;-69
2022/10/20 06:20:41;;;;;;;7.93;4.50;;;;;;;;;;4971035;28;20442;-68
2022/10/20 06:23:07;;;;;;;7.30;5.00;;;;;;;;;;4970410;28;20570;-68
2022/10/20 06:25:33;;;;;;;5.53;4.70;;;;;;;;;;4971028;28;20430;-68
2022/10/20 06:27:59;;;;;;;4.67;4.30;;;;;;;;;;4971478;28;20919;-69
2022/10/20 06:30:25;;;;;;;5.40;4.90;;;;;;;;;;4970552;28;20844;-68
2022/10/20 06:32:54;;;;;;;4.60;4.20;;;;;;;;;;4971247;28;20438;-68
2022/10/20 06:35:20;;;;;;;5.70;5.10;;;;;;;;;;4971388;28;20809;-69
2022/10/20 06:37:46;;;;;;;11.60;5.27;;;;;;;;;;4970484;28;20433;-68
2022/10/20 06:40:12;;;;;;;18.40;12.27;;;;;;;;;;4970102;28;20441;-67
2022/10/20 06:42:38;;;;;;;12.73;6.30;;;;;;;;;;4970761;28;20497;-68
2022/10/20 06:45:04;;;;;;;7.40;5.97;;;;;;;;;;4971192;28;20453;-69
2022/10/20 06:47:30;;;;;;;8.07;6.47;;;;;;;;;;4970117;28;20477;-69
2022/10/20 06:49:56;;;;;;;4.50;4.10;;;;;;;;;;4970286;28;20674;-69
2022/10/20 06:52:22;;;;;;;5.13;4.77;;;;;;;;;;4971031;28;20498;-69
2022/10/20 06:54:48;;;;;;;3.90;3.80;;;;;;;;;;4969965;28;20445;-69
2022/10/20 06:57:14;;;;;;;5.10;4.63;;;;;;;;;;4970895;28;20473;-69
2022/10/20 06:59:40;;;;;;;11.10;4.67;;;;;;;;;;4970764;28;20441;-71
2022/10/20 07:02:08;;;;;;;4.90;4.30;;;;;;;;;;4970484;28;20489;-68
2022/10/20 07:04:34;;;;;;;5.20;3.50;;;;;;;;;;4970050;28;20437;-69
2022/10/20 07:07:00;;;;;;;6.63;4.23;;;;;;;;;;4968567;28;20457;-69
2022/10/20 07:09:26;;;;;;;3.77;3.57;;;;;;;;;;4969505;28;20429;-69
2022/10/20 07:11:52;;;;;;;4.03;3.73;;;;;;;;;;4970740;28;20464;-69
2022/10/20 07:14:18;;;;;;;18.87;6.87;;;;;;;;;;4971160;28;20441;-70
2022/10/20 07:16:44;;;;;;;10.50;4.27;;;;;;;;;;4969491;28;20449;-70
2022/10/20 07:19:10;;;;;;;20.23;4.30;;;;;;;;;;4970213;28;20441;-70
2022/10/20 07:21:36;;;;;;;4.00;3.70;;;;;;;;;;4970835;28;20490;-69
2022/10/20 07:24:03;;;;;;;4.43;3.97;;;;;;;;;;4969309;28;20433;-69
2022/10/20 07:26:30;;;;;;;6.40;3.97;;;;;;;;;;4970602;28;20434;-71
2022/10/20 07:28:58;;;;;;;3.80;3.60;;;;;;;;;;4970604;28;20434;-71
2022/10/20 07:31:30;;;;;;;9.67;5.93;;;;;;;;;;4970268;28;20430;-68
2022/10/20 07:33:57;;;;;;;4.43;4.10;;;;;;;;;;4970778;28;20521;-70
2022/10/20 07:36:25;;;;;;;5.27;4.07;;;;;;;;;;4969653;28;20546;-69
2022/10/20 07:38:52;;;;;;;17.57;5.67;;;;;;;;;;4968577;28;20460;-69
2022/10/20 07:41:18;;;;;;;5.03;4.70;;;;;;;;;;4970689;28;20473;-70
2022/10/20 07:43:44;;;;;;;13.23;4.90;;;;;;;;;;4970283;28;20938;-69
2022/10/20 07:46:11;;;;;;;7.83;5.13;;;;;;;;;;4970112;28;20438;-71
2022/10/20 07:48:37;;;;;;;10.10;5.63;;;;;;;;;;4969711;28;20437;-69
2022/10/20 07:51:33;;;;;;;7.10;5.13;;;;;;;;;;4969430;28;20457;-68
2022/10/20 07:54:00;;;;;;;5.17;4.67;;;;;;;;;;4953084;28;20441;-69
2022/10/20 07:56:30;;;;;;;5.77;5.30;;;;;;;;;;4969181;28;20438;-70
2022/10/20 07:58:57;;;;;;;14.23;5.50;;;;;;;;;;4969263;28;20954;-69
2022/10/20 08:01:23;;;;;;;5.63;5.33;;;;;;;;;;4969600;28;20497;-71
2022/10/20 08:03:49;;;;;;;5.47;5.07;;;;;;;;;;4970921;28;20437;-71
2022/10/20 08:06:15;;;;;;;6.80;4.30;;;;;;;;;;4969499;28;20434;-71
2022/10/20 08:08:41;;;;;;;18.57;5.70;;;;;;;;;;4967741;28;20461;-71
2022/10/20 08:11:07;;;;;;;5.40;5.10;;;;;;;;;;4965588;28;20984;-72
2022/10/20 08:13:33;;;;;;;6.87;6.17;;;;;;;;;;4970312;28;20477;-70
2022/10/20 08:15:59;;;;;;;6.70;5.70;;;;;;;;;;4967411;28;20441;-71
2022/10/20 08:18:25;;;;;;;5.33;5.10;;;;;;;;;;4965669;28;20434;-69
2022/10/20 08:20:51;;;;;;;6.00;5.47;;;;;;;;;;4968538;28;20532;-70
2022/10/20 08:23:17;;;;;;;8.90;6.00;;;;;;;;;;4969034;28;20537;-71
2022/10/20 08:25:43;;;;;;;6.03;5.63;;;;;;;;;;4970886;28;20419;-71
2022/10/20 08:28:09;;;;;;;6.50;6.07;;;;;;;;;;4967658;28;20807;-70
2022/10/20 08:30:35;;;;;;;6.30;5.43;;;;;;;;;;4968921;28;20449;-70
2022/10/20 08:33:01;;;;;;;9.10;5.90;;;;;;;;;;4969054;28;20472;-72
2022/10/20 08:35:27;;;;;;;10.53;5.93;;;;;;;;;;4969931;28;20430;-72
2022/10/20 08:37:53;;;;;;;6.20;5.70;;;;;;;;;;4968740;28;20493;-71
2022/10/20 08:40:21;;;;;;;5.40;5.00;;;;;;;;;;4965631;28;20438;-70
2022/10/20 08:42:47;;;;;;;8.30;5.87;;;;;;;;;;4967889;28;20486;-72
2022/10/20 08:45:14;;;;;;;8.47;5.47;;;;;;;;;;4969438;28;20528;-71
2022/10/20 08:47:40;;;;;;;12.33;6.33;;;;;;;;;;4967773;28;20962;-71
2022/10/20 08:50:09;;;;;;;7.50;6.63;;;;;;;;;;4969362;28;20489;-70
2022/10/20 08:52:35;;;;;;;10.80;6.63;;;;;;;;;;4968497;28;20452;-71
2022/10/20 08:55:03;;;;;;;6.73;6.00;;;;;;;;;;4969127;28;20477;-69
2022/10/20 08:57:30;;;;;;;8.63;6.27;;;;;;;;;;4967854;28;20436;-69
2022/10/20 09:00:02;;;;;;;6.23;5.80;;;;;;;;;;4973174;28;20492;-69
2022/10/20 09:02:31;;;;;;;7.20;5.60;;;;;;;;;;4973104;28;20993;-72
2022/10/20 09:04:59;;;;;;;13.73;6.70;;;;;;;;;;4972956;28;20944;-69
2022/10/20 09:07:26;;;;;;;6.87;6.23;;;;;;;;;;4970348;28;20446;-70
2022/10/20 09:09:54;;;;;;;9.63;5.73;;;;;;;;;;4970349;28;20476;-71
2022/10/20 09:12:20;;;;;;;7.20;6.50;;;;;;;;;;4972303;28;20440;-71
2022/10/20 09:14:46;;;;;;;7.60;6.90;;;;;;;;;;4972427;28;20828;-72
2022/10/20 09:17:15;;;;;;;8.80;7.67;;;;;;;;;;4972396;28;20488;-71
2022/10/20 09:19:44;;;;;;;10.03;6.20;;;;;;;;;;4971570;28;20434;-69
2022/10/20 09:22:11;;;;;;;5.90;5.50;;;;;;;;;;4971350;28;20490;-71
2022/10/20 09:24:38;;;;;;;9.03;6.97;;;;;;;;;;4972031;28;20989;-70
2022/10/20 09:27:41;;;;;;;7.20;6.20;;;;;;;;;;4972696;28;20851;-71
2022/10/20 09:30:19;;;;;;;9.90;6.90;;;;;;;;;;4931202;29;20518;-71
2022/10/20 09:32:45;;;;;;;8.47;6.90;;;;;;;;;;4966823;28;20461;-70
2022/10/20 09:35:23;;;;;;;12.80;7.53;;;;;;;;;;4973402;28;20484;-71
2022/10/20 09:37:58;;;;;;;7.97;5.90;;;;;;;;;;4970590;28;20446;-71
2022/10/20 09:40:25;;;;;;;6.80;6.37;;;;;;;;;;4970621;28;20438;-70
2022/10/20 09:42:55;;;;;;;7.13;6.40;;;;;;;;;;4971318;28;20481;-69
2022/10/20 09:45:23;;;;;;;8.93;7.93;;;;;;;;;;4970784;28;20433;-70
2022/10/20 09:47:51;;;;;;;7.40;6.70;;;;;;;;;;4970692;28;20438;-70
2022/10/20 09:50:28;;;;;;;8.63;7.27;;;;;;;;;;4971320;28;20474;-71
2022/10/20 09:52:55;;;;;;;7.47;6.80;;;;;;;;;;4971185;28;20453;-72
2022/10/20 09:55:26;;;;;;;8.17;7.57;;;;;;;;;;4972276;28;20461;-72
2022/10/20 09:57:53;;;;;;;10.50;7.23;;;;;;;;;;4971123;28;20477;-70
2022/10/20 10:00:27;;;;;;;8.20;7.27;;;;;;;;;;4972155;28;20466;-69
2022/10/20 10:03:08;;;;;;;7.67;6.10;;;;;;;;;;4972575;28;20486;-70
2022/10/20 10:05:34;;;;;;;10.27;9.37;;;;;;;;;;4967887;28;20425;-70
2022/10/20 10:08:00;;;;;;;11.07;7.50;;;;;;;;;;4969640;28;20442;-70
2022/10/20 10:10:28;;;;;;;9.13;6.90;;;;;;;;;;4969367;28;20564;-71
2022/10/20 10:12:56;;;;;;;11.20;7.27;;;;;;;;;;4971087;28;21182;-71
2022/10/20 10:15:22;;;;;;;11.50;7.50;;;;;;;;;;4970033;28;20433;-70
2022/10/20 10:17:49;;;;;;;8.80;8.00;;;;;;;;;;4968731;28;20446;-72
2022/10/20 10:20:17;;;;;;;14.40;7.30;;;;;;;;;;4970249;28;20634;-71
2022/10/20 10:22:44;;;;;;;8.07;7.40;;;;;;;;;;4971003;28;20974;-71
2022/10/20 10:25:19;;;;;;;7.30;6.60;;;;;;;;;;4970989;28;20426;-71
2022/10/20 10:28:08;;;;;;;11.10;7.90;;;;;;;;;;4969393;28;21033;-69
2022/10/20 10:30:35;;;;;;;9.57;5.97;;;;;;;;;;4969101;28;20438;-70
2022/10/20 10:33:01;;;;;;;10.30;7.27;;;;;;;;;;4970503;28;20525;-71
2022/10/20 10:35:47;;;;;;;19.83;9.10;;;;;;;;;;4970119;28;20433;-71
2022/10/20 10:38:13;;;;;;;8.90;7.33;;;;;;;;;;4970088;28;20437;-71
2022/10/20 10:40:49;;;;;;;7.80;7.20;;;;;;;;;;4970228;28;20533;-71
2022/10/20 10:43:33;;;;;;;7.03;6.50;;;;;;;;;;4971046;28;20978;-70
2022/10/20 10:46:07;;;;;;;8.17;7.47;;;;;;;;;;4969673;28;20434;-70
2022/10/20 10:48:33;;;;;;;8.70;7.77;;;;;;;;;;4969388;28;20433;-71
2022/10/20 10:51:25;;;;;;;10.97;8.10;;;;;;;;;;4969915;28;20430;-70
2022/10/20 10:53:54;;;;;;;9.23;7.17;;;;;;;;;;4968013;28;20194;-70
2022/10/20 10:56:37;;;;;;;9.00;7.33;;;;;;;;;;4968338;28;20437;-68
2022/10/20 10:59:05;;;;;;;12.00;6.83;;;;;;;;;;4969891;28;20437;-68
2022/10/20 11:01:44;;;;;;;7.23;6.27;;;;;;;;;;4969326;28;20485;-69
2022/10/20 11:04:10;;;;;;;7.93;7.27;;;;;;;;;;4969090;28;20864;-70
2022/10/20 11:07:11;;;;;;;5.60;5.03;;;;;;;;;;4968660;28;20441;-70
2022/10/20 11:09:48;;;;;;;12.87;6.00;;;;;;;;;;4928877;29;20904;-71
2022/10/20 11:12:13;;;;;;;9.07;5.60;;;;;;;;;;4964414;28;20461;-70
2022/10/20 11:14:48;;;;;;;14.07;8.10;;;;;;;;;;4970086;28;20946;-71
2022/10/20 11:17:29;;;;;;;7.23;6.53;;;;;;;;;;4968839;28;20425;-70
2022/10/20 11:19:55;;;;;;;6.00;5.40;;;;;;;;;;4968445;28;20442;-69
2022/10/20 11:22:27;;;;;;;8.87;5.30;;;;;;;;;;4968820;28;20504;-71
2022/10/20 11:25:12;;;;;;;8.83;5.37;;;;;;;;;;4968911;28;20529;-70
2022/10/20 11:27:38;;;;;;;12.83;5.00;;;;;;;;;;4968246;28;20445;-71
2022/10/20 11:30:14;;;;;;;7.00;5.70;;;;;;;;;;4969544;28;20449;-71
2022/10/20 11:32:53;;;;;;;8.23;4.67;;;;;;;;;;4970445;28;20721;-70
2022/10/20 11:35:25;;;;;;;7.33;5.03;;;;;;;;;;4970407;28;20504;-71
2022/10/20 11:38:21;;;;;;;7.27;5.40;;;;;;;;;;4969574;28;20947;-70
2022/10/20 11:40:50;;;;;;;6.47;4.10;;;;;;;;;;4960469;28;20445;-71
2022/10/20 11:43:17;;;;;;;5.13;4.60;;;;;;;;;;4970110;28;20477;-68
2022/10/20 11:45:53;;;;;;;18.13;7.20;;;;;;;;;;4969363;28;20860;-69
2022/10/20 11:48:25;;;;;;;7.90;6.80;;;;;;;;;;4969344;28;20434;-68
2022/10/20 11:51:10;;;;;;;10.30;7.33;;;;;;;;;;4968840;28;20472;-69
2022/10/20 11:54:00;;;;;;;7.30;6.70;;;;;;;;;;4969576;28;20433;-69
2022/10/20 11:56:46;;;;;;;12.90;7.03;;;;;;;;;;4969734;28;20430;-69
2022/10/20 11:59:15;;;;;;;13.47;6.43;;;;;;;;;;4969685;28;20446;-70
2022/10/20 12:01:54;;;;;;;9.73;6.60;;;;;;;;;;4968450;28;20479;-70
2022/10/20 12:04:22;;;;;;;9.30;6.73;;;;;;;;;;4969319;28;20442;-71
2022/10/20 12:07:01;;;;;;;9.93;6.70;;;;;;;;;;4969340;28;20734;-71
2022/10/20 12:09:26;;;;;;;8.17;6.97;;;;;;;;;;4966969;28;20930;-71
2022/10/20 12:11:55;;;;;;;22.30;6.33;;;;;;;;;;4967806;28;20453;-71
2022/10/20 12:14:33;;;;;;;11.27;6.70;;;;;;;;;;4969995;28;20302;-71
2022/10/20 12:17:04;;;;;;;28.63;9.20;;;;;;;;;;4969620;28;20441;-71
2022/10/20 12:19:34;;;;;;;12.13;7.47;;;;;;;;;;4969545;28;20939;-70
2022/10/20 12:22:00;;;;;;;7.40;6.80;;;;;;;;;;4968677;28;20496;-69
2022/10/20 12:24:31;;;;;;;10.87;7.17;;;;;;;;;;4968590;28;20442;-68
2022/10/20 12:27:06;;;;;;;13.70;7.70;;;;;;;;;;4969698;28;20495;-70
2022/10/20 12:29:32;;;;;;;8.47;6.27;;;;;;;;;;4968196;28;20789;-69
2022/10/20 12:32:19;;;;;;;6.93;6.33;;;;;;;;;;4968858;28;20488;-70
2022/10/20 12:34:46;;;;;;;10.60;6.50;;;;;;;;;;4972954;28;20654;-71
2022/10/20 12:37:16;;;;;;;9.87;7.20;;;;;;;;;;4973302;28;20968;-69
2022/10/20 12:39:43;;;;;;;11.93;7.40;;;;;;;;;;4971819;28;20438;-68
2022/10/20 12:42:18;;;;;;;7.67;6.03;;;;;;;;;;4972828;28;20485;-71
2022/10/20 12:44:45;;;;;;;7.87;6.87;;;;;;;;;;4973830;28;20517;-71
2022/10/20 12:47:23;;;;;;;3.87;3.77;;;;;;;;;;4973053;28;20457;-72
2022/10/20 12:49:51;;;;;;;6.10;5.60;;;;;;;;;;4973871;28;20437;-71
2022/10/20 12:52:22;;;;;;;28.73;5.40;;;;;;;;;;4972824;28;20937;-71
2022/10/20 12:54:54;;;;;;;11.20;6.60;;;;;;;;;;4972926;28;20472;-70
2022/10/20 12:57:26;;;;;;;7.23;6.73;;;;;;;;;;4972789;28;20433;-69
2022/10/20 12:59:52;;;;;;;7.07;6.37;;;;;;;;;;4972763;28;20434;-71
2022/10/20 13:02:19;;;;;;;8.40;6.03;;;;;;;;;;4973499;28;20598;-71
2022/10/20 13:04:56;;;;;;;12.00;5.80;;;;;;;;;;4973562;28;20434;-70
2022/10/20 13:07:41;;;;;;;8.43;6.43;;;;;;;;;;4970725;28;20938;-71
2022/10/20 13:10:36;;;;;;;5.50;5.07;;;;;;;;;;4970879;28;20489;-70
2022/10/20 13:13:02;;;;;;;6.47;5.90;;;;;;;;;;4951987;28;20521;-69
2022/10/20 13:15:31;;;;;;;6.30;5.80;;;;;;;;;;4970808;28;20509;-70
2022/10/20 13:18:00;;;;;;;9.80;6.77;;;;;;;;;;4971552;28;20513;-70
2022/10/20 13:20:42;;;;;;;10.00;5.70;;;;;;;;;;4971789;28;20493;-69
2022/10/20 13:23:11;;;;;;;11.30;5.80;;;;;;;;;;4972149;28;20583;-69
2022/10/20 13:25:37;;;;;;;6.27;5.70;;;;;;;;;;4970574;28;20538;-69
2022/10/20 13:28:13;;;;;;;12.50;7.00;;;;;;;;;;4972385;28;20521;-68
2022/10/20 13:30:52;;;;;;;10.97;4.90;;;;;;;;;;4972829;28;20425;-70
2022/10/20 13:33:24;;;;;;;5.50;4.80;;;;;;;;;;4971747;28;20442;-69
2022/10/20 13:35:50;;;;;;;14.80;5.37;;;;;;;;;;4972572;28;20469;-70
2022/10/20 13:38:19;;;;;;;5.07;4.70;;;;;;;;;;4971392;28;20524;-71
2022/10/20 13:40:51;;;;;;;9.03;6.10;;;;;;;;;;4972295;28;20441;-71
2022/10/20 13:43:20;;;;;;;3.97;3.67;;;;;;;;;;4971881;28;20504;-69
2022/10/20 13:45:49;;;;;;;16.13;6.93;;;;;;;;;;4971427;28;20425;-69
2022/10/20 13:48:23;;;;;;;6.50;5.70;;;;;;;;;;4970828;28;20438;-68
2022/10/20 13:50:54;;;;;;;9.27;6.90;;;;;;;;;;4971353;28;20798;-67
2022/10/20 13:53:24;;;;;;;6.97;6.27;;;;;;;;;;4971589;28;20795;-69
2022/10/20 13:55:57;;;;;;;8.80;5.30;;;;;;;;;;4971995;28;20426;-68
2022/10/20 13:58:23;;;;;;;5.70;5.30;;;;;;;;;;4970893;28;20886;-70
2022/10/20 14:00:59;;;;;;;9.90;6.03;;;;;;;;;;4971927;28;20511;-69
2022/10/20 14:03:25;;;;;;;9.40;6.00;;;;;;;;;;4971019;28;20839;-69
2022/10/20 14:05:53;;;;;;;7.57;6.17;;;;;;;;;;4971915;28;20426;-67
2022/10/20 14:08:20;;;;;;;7.23;5.47;;;;;;;;;;4972026;28;20421;-69
2022/10/20 14:10:51;;;;;;;13.57;6.43;;;;;;;;;;4970928;28;20560;-70
2022/10/20 14:13:18;;;;;;;14.67;7.30;;;;;;;;;;4969983;28;20843;-69
2022/10/20 14:15:49;;;;;;;12.43;6.13;;;;;;;;;;4970805;28;20438;-68
2022/10/20 14:18:21;;;;;;;8.50;7.23;;;;;;;;;;4971331;28;20946;-69
2022/10/20 14:20:55;;;;;;;10.37;6.57;;;;;;;;;;4971029;28;20521;-69
2022/10/20 14:23:22;;;;;;;12.80;7.60;;;;;;;;;;4968766;28;20485;-69
2022/10/20 14:25:49;;;;;;;13.43;10.20;;;;;;;;;;4971194;28;20950;-68
2022/10/20 14:28:18;;;;;;;8.50;7.60;;;;;;;;;;4970802;28;20580;-68
2022/10/20 14:30:44;;;;;;;11.17;7.97;;;;;;;;;;4970979;28;20970;-69
2022/10/20 14:33:17;;;;;;;15.50;9.33;;;;;;;;;;4971217;28;20908;-68
2022/10/20 14:35:50;;;;;;;17.63;8.63;;;;;;;;;;4971580;28;20430;-67
2022/10/20 14:38:18;;;;;;;11.10;8.50;;;;;;;;;;4971175;28;20997;-68
2022/10/20 14:40:52;;;;;;;21.77;9.67;;;;;;;;;;4971845;28;20793;-68
2022/10/20 14:43:20;;;;;;;20.23;10.13;;;;;;;;;;4971736;28;20584;-70
2022/10/20 14:46:00;;;;;;;14.80;7.53;;;;;;;;;;4971465;28;20437;-69
2022/10/20 14:48:36;;;;;;;6.80;5.67;;;;;;;;;;4970614;28;20430;-69
2022/10/20 14:51:22;;;;;;;7.50;7.00;;;;;;;;;;4971577;28;20516;-67
2022/10/20 14:53:48;;;;;;;15.07;8.87;;;;;;;;;;4970091;28;20461;-67